Time;durP1;ratioP1;P1;durP2;ratioP2;P2;SDS_P1;SDS_P2;PMS_P1;PMS_P2;Temp;Humidity;BMP_temperature;BMP_pressure;BME280_temperature;BME280_humidity;BME280_pressure;Samples;Min_cycle;Max_cycle;Signal;HPM_P1;HPM_P2
2022/04/24 00:02:25;;;;;;;17.73;8.25;;;;;;;10.90;50.26;99148.81;5116671;28;20044;-65
2022/04/24 00:04:53;;;;;;;18.08;8.85;;;;;;;10.83;50.48;99136.63;5116982;28;20066;-65
2022/04/24 00:07:21;;;;;;;16.08;8.88;;;;;;;10.86;50.72;99147.06;5115214;28;20043;-65
2022/04/24 00:09:48;;;;;;;14.85;7.97;;;;;;;10.87;50.21;99143.13;5116500;28;20044;-65
2022/04/24 00:12:16;;;;;;;17.80;7.78;;;;;;;10.89;50.59;99138.03;5116687;28;20070;-65
2022/04/24 00:14:50;;;;;;;18.45;8.07;;;;;;;10.95;50.61;99139.44;5116596;28;20047;-65
2022/04/24 00:17:20;;;;;;;17.27;8.27;;;;;;;10.99;50.82;99141.19;5116409;28;20108;-64
2022/04/24 00:19:51;;;;;;;18.10;8.48;;;;;;;11.04;50.44;99143.75;5116098;28;20047;-64
2022/04/24 00:22:22;;;;;;;14.30;8.07;;;;;;;11.09;50.61;99129.63;5116361;28;20563;-65
2022/04/24 00:24:50;;;;;;;15.27;8.23;;;;;;;11.14;50.16;99134.94;5115252;28;20052;-74
2022/04/24 00:27:17;;;;;;;15.52;7.88;;;;;;;11.18;49.89;99131.47;5115976;28;20048;-73
2022/04/24 00:29:44;;;;;;;21.65;9.55;;;;;;;11.24;50.35;99142.03;5116781;28;20512;-74
2022/04/24 00:32:11;;;;;;;21.58;9.23;;;;;;;11.27;50.18;99135.78;5116227;28;20055;-73
2022/04/24 00:34:39;;;;;;;27.65;10.15;;;;;;;11.29;50.03;99127.88;5115958;28;20047;-73
2022/04/24 00:37:09;;;;;;;;;;;;;;;11.25;50.37;99132.50;5115032;28;20076;-74
2022/04/24 00:39:36;;;;;;;17.65;7.65;;;;;;;11.22;50.15;99127.63;5114787;28;20026;-63
2022/04/24 00:42:09;;;;;;;14.25;8.30;;;;;;;11.30;49.99;99128.69;5114318;28;20043;-63
2022/04/24 00:44:36;;;;;;;17.23;7.57;;;;;;;11.33;50.41;99133.56;5098087;28;20051;-62
2022/04/24 00:47:16;;;;;;;19.02;8.43;;;;;;;11.35;49.93;99126.50;5097344;28;20480;-63
2022/04/24 00:49:46;;;;;;;17.15;7.97;;;;;;;11.37;49.89;99117.78;5129549;27;20090;-64
2022/04/24 00:52:14;;;;;;;15.82;8.60;;;;;;;11.33;49.60;99116.84;5115864;28;20108;-64
2022/04/24 00:54:41;;;;;;;16.30;8.68;;;;;;;11.35;49.79;99109.78;5126694;27;20075;-62
2022/04/24 00:57:10;;;;;;;17.85;8.00;;;;;;;11.35;49.71;99120.94;5133922;27;20047;-64
2022/04/24 00:59:38;;;;;;;20.30;8.82;;;;;;;11.30;50.28;99117.53;5111405;28;20134;-63
2022/04/24 01:02:11;;;;;;;17.85;8.32;;;;;;;11.23;50.09;99112.56;5097928;28;20048;-63
2022/04/24 01:04:39;;;;;;;21.45;8.93;;;;;;;11.20;50.28;99121.63;5115731;28;20139;-64
2022/04/24 01:07:08;;;;;;;17.30;8.82;;;;;;;11.15;50.02;99119.06;5115568;28;20058;-63
2022/04/24 01:09:35;;;;;;;18.42;8.48;;;;;;;11.14;49.85;99112.66;5115114;28;20402;-63
2022/04/24 01:12:04;;;;;;;19.73;8.35;;;;;;;11.15;50.05;99121.84;5096810;28;20591;-63
2022/04/24 01:14:32;;;;;;;21.92;8.25;;;;;;;11.18;50.43;99115.56;5097100;28;20444;-64
2022/04/24 01:17:02;;;;;;;21.48;8.85;;;;;;;11.21;50.30;99117.66;5115534;28;20059;-63
2022/04/24 01:19:29;;;;;;;18.75;8.10;;;;;;;11.21;50.25;99117.66;5096603;28;20116;-63
2022/04/24 01:21:57;;;;;;;28.23;8.77;;;;;;;11.21;50.25;99112.09;5114848;28;20517;-64
2022/04/24 01:24:26;;;;;;;18.15;7.88;;;;;;;11.21;49.68;99109.31;5115556;28;20051;-64
2022/04/24 01:26:54;;;;;;;21.40;8.15;;;;;;;11.22;49.50;99104.56;5092214;28;20059;-63
2022/04/24 01:29:23;;;;;;;20.60;9.07;;;;;;;11.21;49.75;99102.91;5096622;28;20058;-62
2022/04/24 01:31:51;;;;;;;16.52;8.60;;;;;;;11.22;50.05;99105.34;5113708;28;20504;-62
2022/04/24 01:34:20;;;;;;;20.08;8.57;;;;;;;11.24;49.79;99103.06;5114746;28;20482;-62
2022/04/24 01:36:47;;;;;;;22.88;8.40;;;;;;;11.24;49.47;99111.41;5120949;27;20179;-63
2022/04/24 01:39:15;;;;;;;20.10;8.70;;;;;;;11.25;49.77;99110.22;5135262;27;20502;-63
2022/04/24 01:41:44;;;;;;;19.42;8.38;;;;;;;11.25;49.58;99101.88;5116833;27;20398;-63
2022/04/24 01:44:12;;;;;;;20.67;8.63;;;;;;;11.27;49.71;99096.78;5117194;27;20051;-63
2022/04/24 01:46:40;;;;;;;21.20;8.50;;;;;;;11.28;49.61;99100.38;5116609;27;20481;-64
2022/04/24 01:49:07;;;;;;;23.65;9.05;;;;;;;11.27;49.65;99096.78;5112943;28;20059;-63
2022/04/24 01:51:34;;;;;;;14.88;8.35;;;;;;;11.28;49.69;99092.84;5114469;28;20159;-63
2022/04/24 01:54:01;;;;;;;15.60;8.43;;;;;;;11.27;50.16;99091.22;5114977;28;20051;-63
2022/04/24 01:56:28;;;;;;;25.40;9.43;;;;;;;11.27;49.89;99093.19;5114439;28;20089;-62
2022/04/24 01:58:56;;;;;;;16.42;8.35;;;;;;;11.26;50.34;99089.59;5098041;28;20075;-63
2022/04/24 02:01:23;;;;;;;20.63;7.78;;;;;;;11.25;49.95;99099.09;5093777;28;20086;-63
2022/04/24 02:03:50;;;;;;;16.95;7.88;;;;;;;11.24;50.18;99091.09;5093905;28;20105;-68
2022/04/24 02:06:17;;;;;;;14.80;7.95;;;;;;;11.24;50.44;99085.53;5093255;28;20056;-68
2022/04/24 02:08:44;;;;;;;15.77;8.45;;;;;;;11.26;50.00;99088.78;5093201;28;20507;-68
2022/04/24 02:11:11;;;;;;;20.15;8.20;;;;;;;11.23;50.18;99081.94;5093871;28;20051;-69
2022/04/24 02:13:38;;;;;;;16.88;7.60;;;;;;;11.23;50.10;99090.31;5093729;28;20047;-69
2022/04/24 02:16:05;;;;;;;27.58;8.02;;;;;;;11.24;49.42;99083.56;5092913;28;20048;-69
2022/04/24 02:18:33;;;;;;;14.35;7.10;;;;;;;11.27;49.61;99080.09;5093438;28;20048;-67
2022/04/24 02:21:00;;;;;;;17.08;9.10;;;;;;;11.23;49.61;99087.50;5093859;28;20047;-68
2022/04/24 02:23:27;;;;;;;17.38;7.85;;;;;;;11.19;49.75;99078.22;5093415;28;20414;-69
2022/04/24 02:25:55;;;;;;;20.13;8.38;;;;;;;11.18;49.72;99076.59;5098065;28;20049;-69
2022/04/24 02:28:22;;;;;;;16.73;7.43;;;;;;;11.22;49.40;99076.72;5113778;28;20093;-69
2022/04/24 02:30:50;;;;;;;18.55;7.95;;;;;;;11.26;49.44;99089.59;5113769;28;20055;-68
2022/04/24 02:33:17;;;;;;;14.65;6.63;;;;;;;11.25;49.78;99078.81;5112021;28;20451;-68
2022/04/24 02:35:44;;;;;;;14.27;7.90;;;;;;;11.23;49.61;99073.59;5113797;28;20055;-68
2022/04/24 02:38:12;;;;;;;14.27;7.00;;;;;;;11.21;49.83;99061.97;5113534;28;20125;-68
2022/04/24 02:40:39;;;;;;;15.15;7.78;;;;;;;11.18;49.72;99062.69;5112136;28;20047;-68
2022/04/24 02:43:08;;;;;;;17.48;7.50;;;;;;;11.14;49.83;99065.34;5113377;28;20495;-68
2022/04/24 02:45:35;;;;;;;13.43;7.00;;;;;;;11.11;49.78;99065.25;5095225;28;20073;-69
2022/04/24 02:48:03;;;;;;;19.90;7.65;;;;;;;11.16;49.94;99072.56;5095003;28;20047;-69
2022/04/24 02:50:30;;;;;;;17.25;8.27;;;;;;;11.17;49.68;99069.41;5093052;28;20048;-69
2022/04/24 02:52:57;;;;;;;15.98;8.07;;;;;;;11.17;50.14;99074.16;5093200;28;20050;-68
2022/04/24 02:55:25;;;;;;;18.13;7.72;;;;;;;11.21;50.01;99075.91;5093158;28;20134;-65
2022/04/24 02:57:53;;;;;;;16.70;7.63;;;;;;;11.22;49.77;99077.50;5085720;28;20052;-64
2022/04/24 03:00:24;;;;;;;12.88;7.40;;;;;;;11.24;49.57;99077.16;5071877;28;20537;-64
2022/04/24 03:02:53;;;;;;;14.18;7.68;;;;;;;11.26;49.76;99077.66;5072549;28;20066;-64
2022/04/24 03:05:22;;;;;;;13.77;7.70;;;;;;;11.26;49.71;99075.69;5072974;28;20056;-64
2022/04/24 03:07:49;;;;;;;15.35;8.18;;;;;;;11.24;49.47;99068.81;5072659;28;20135;-65
2022/04/24 03:10:17;;;;;;;14.23;6.75;;;;;;;11.23;49.62;99068.03;5072458;28;20055;-64
2022/04/24 03:12:45;;;;;;;18.25;8.20;;;;;;;11.26;50.23;99072.91;5072561;28;20140;-64
2022/04/24 03:15:14;;;;;;;12.25;6.65;;;;;;;11.27;50.14;99074.50;5072447;28;20144;-65
2022/04/24 03:17:42;;;;;;;16.05;7.18;;;;;;;11.31;49.98;99077.41;5055287;28;20055;-65
2022/04/24 03:20:10;;;;;;;16.85;7.13;;;;;;;11.31;49.68;99086.56;5076516;28;20472;-64
2022/04/24 03:22:38;;;;;;;13.30;7.45;;;;;;;11.33;49.54;99078.69;5092302;28;20079;-65
2022/04/24 03:25:08;;;;;;;15.70;7.05;;;;;;;11.40;49.43;99086.47;5097138;28;20055;-64
2022/04/24 03:27:35;;;;;;;14.15;7.45;;;;;;;11.42;49.62;99079.38;5095570;28;20097;-64
2022/04/24 03:30:04;;;;;;;13.70;7.35;;;;;;;11.42;49.57;99081.34;5096582;28;20052;-65
2022/04/24 03:32:32;;;;;;;14.30;7.07;;;;;;;11.43;49.41;99078.19;5096789;28;20155;-64
2022/04/24 03:35:00;;;;;;;10.52;6.50;;;;;;;11.47;49.06;99079.16;5095238;28;20072;-64
2022/04/24 03:37:32;;;;;;;13.38;7.22;;;;;;;11.48;48.99;99075.19;5096560;28;20475;-65
2022/04/24 03:39:59;;;;;;;15.07;6.78;;;;;;;11.50;49.42;99088.78;5096997;28;20448;-65
2022/04/24 03:42:26;;;;;;;12.63;6.57;;;;;;;11.47;49.12;99087.50;5095839;28;20090;-65
2022/04/24 03:44:55;;;;;;;11.95;6.32;;;;;;;11.44;49.57;99085.41;5095098;28;20122;-65
2022/04/24 03:47:23;;;;;;;14.70;6.38;;;;;;;11.43;49.43;99071.84;5096753;28;20047;-65
2022/04/24 03:49:50;;;;;;;16.02;6.80;;;;;;;11.44;49.15;99085.41;5126439;27;20058;-67
2022/04/24 03:52:18;;;;;;;15.52;6.30;;;;;;;11.42;49.68;99082.16;5137633;27;20043;-65
2022/04/24 03:54:45;;;;;;;21.73;6.78;;;;;;;11.47;49.46;99083.91;5136928;27;20141;-65
2022/04/24 03:57:12;;;;;;;12.98;7.57;;;;;;;11.48;48.94;99077.16;5135491;27;20047;-65
2022/04/24 03:59:40;;;;;;;16.20;6.18;;;;;;;11.50;49.10;99075.66;5116923;28;20100;-66
2022/04/24 04:02:07;;;;;;;13.85;6.15;;;;;;;11.52;48.82;99076.09;5082144;28;20390;-64
2022/04/24 04:04:34;;;;;;;19.27;6.22;;;;;;;11.49;49.20;99078.78;5116772;28;20249;-65
2022/04/24 04:07:02;;;;;;;21.52;6.88;;;;;;;11.50;49.33;99067.31;5116541;28;20048;-65
2022/04/24 04:09:29;;;;;;;15.65;7.88;;;;;;;11.54;48.65;99073.78;5116132;28;20112;-65
2022/04/24 04:11:57;;;;;;;15.85;6.50;;;;;;;11.56;48.69;99071.47;5116392;28;20506;-66
2022/04/24 04:14:24;;;;;;;17.38;7.40;;;;;;;11.58;48.44;99069.16;5116578;28;20410;-65
2022/04/24 04:16:51;;;;;;;32.03;8.00;;;;;;;11.62;49.08;99075.69;5116662;28;20055;-65
2022/04/24 04:19:18;;;;;;;20.58;7.47;;;;;;;11.63;48.27;99066.16;5116556;28;20586;-65
2022/04/24 04:21:45;;;;;;;16.75;7.70;;;;;;;11.61;49.17;99068.47;5116243;28;20047;-65
2022/04/24 04:24:13;;;;;;;16.13;7.47;;;;;;;11.62;48.62;99063.69;5116433;28;20047;-65
2022/04/24 04:26:40;;;;;;;18.23;7.50;;;;;;;11.63;48.58;99057.00;5116404;28;20138;-64
2022/04/24 04:29:07;;;;;;;13.88;6.15;;;;;;;11.65;49.00;99063.00;5115726;28;20055;-65
2022/04/24 04:31:35;;;;;;;15.35;7.47;;;;;;;11.68;48.52;99054.78;5119558;27;20051;-65
2022/04/24 04:34:02;;;;;;;19.02;6.75;;;;;;;11.83;48.72;99051.25;5136507;27;20043;-64
2022/04/24 04:36:29;;;;;;;14.13;6.25;;;;;;;11.94;48.38;99052.38;5136477;27;20142;-65
2022/04/24 04:38:56;;;;;;;19.50;6.90;;;;;;;11.99;47.93;99056.91;5136506;27;20152;-65
2022/04/24 04:41:24;;;;;;;12.90;6.63;;;;;;;11.96;48.34;99054.81;5136471;27;20114;-65
2022/04/24 04:43:51;;;;;;;20.42;7.53;;;;;;;11.88;48.43;99048.22;5136347;27;20066;-64
2022/04/24 04:46:18;;;;;;;12.25;6.78;;;;;;;11.77;48.92;99049.88;5136416;27;20051;-65
2022/04/24 04:48:45;;;;;;;17.55;7.57;;;;;;;11.72;49.17;99047.31;5136159;27;20066;-66
2022/04/24 04:51:19;;;;;;;13.50;7.20;;;;;;;11.70;49.07;99055.25;5136310;27;20058;-65
2022/04/24 04:53:46;;;;;;;24.27;6.95;;;;;;;11.64;49.43;99059.44;5136442;27;20070;-65
2022/04/24 04:56:15;;;;;;;20.30;6.73;;;;;;;11.62;49.00;99056.19;5136665;27;20094;-65
2022/04/24 04:58:46;;;;;;;12.07;6.90;;;;;;;11.59;49.55;99048.50;5121305;27;20043;-64
2022/04/24 05:01:13;;;;;;;14.77;6.80;;;;;;;11.62;49.57;99052.53;5097164;28;20056;-65
2022/04/24 05:03:40;;;;;;;16.90;6.93;;;;;;;11.65;49.02;99055.47;5115014;28;20052;-65
2022/04/24 05:06:08;;;;;;;13.75;6.82;;;;;;;11.70;49.09;99052.44;5115560;28;20057;-64
2022/04/24 05:08:36;;;;;;;15.85;6.90;;;;;;;11.72;48.94;99052.88;5097090;28;20055;-65
2022/04/24 05:11:06;;;;;;;17.48;7.10;;;;;;;11.65;49.72;99052.69;5096429;28;20059;-65
2022/04/24 05:13:34;;;;;;;20.63;7.70;;;;;;;11.64;49.50;99058.63;5096247;28;20071;-64
2022/04/24 05:16:01;;;;;;;15.98;7.15;;;;;;;11.62;49.45;99053.38;5115346;28;20096;-66
2022/04/24 05:18:29;;;;;;;21.33;7.43;;;;;;;11.62;49.93;99052.53;5080105;28;20139;-67
2022/04/24 05:20:57;;;;;;;28.38;8.10;;;;;;;11.63;49.94;99055.00;5119745;27;20072;-65
2022/04/24 05:23:24;;;;;;;20.10;7.70;;;;;;;11.58;49.83;99046.88;5135811;27;20050;-66
2022/04/24 05:25:51;;;;;;;17.50;7.65;;;;;;;11.54;50.00;99053.47;5135565;27;20043;-65
2022/04/24 05:28:19;;;;;;;19.85;8.10;;;;;;;11.52;50.13;99053.03;5116747;27;20049;-65
2022/04/24 05:30:46;;;;;;;21.17;7.88;;;;;;;11.47;50.05;99048.50;5135679;27;20086;-65
2022/04/24 05:33:19;;;;;;;22.30;8.02;;;;;;;11.47;50.65;99044.91;5117124;27;20252;-65
2022/04/24 05:35:50;;;;;;;15.35;7.00;;;;;;;11.52;50.74;99048.25;5116741;27;20402;-64
2022/04/24 05:38:17;;;;;;;;;;;;;;;11.44;50.34;99048.38;5135452;27;20062;-65
2022/04/24 05:40:44;;;;;;;20.60;9.18;;;;;;;11.41;50.85;99041.56;5135175;27;19923;-67
2022/04/24 05:43:12;;;;;;;20.98;8.00;;;;;;;11.46;50.48;99044.09;5099560;27;20047;-65
2022/04/24 05:45:39;;;;;;;23.33;7.65;;;;;;;11.51;50.36;99043.84;5134986;27;20514;-65
2022/04/24 05:48:06;;;;;;;17.25;7.30;;;;;;;11.51;50.61;99035.50;5134848;27;20062;-66
2022/04/24 05:50:34;;;;;;;16.98;6.35;;;;;;;11.50;50.57;99036.66;5100076;27;20130;-65
2022/04/24 05:53:02;;;;;;;20.45;7.18;;;;;;;11.52;50.58;99037.09;5135083;27;20517;-65
2022/04/24 05:55:29;;;;;;;20.08;7.50;;;;;;;11.58;50.59;99043.28;5116706;27;20146;-65
2022/04/24 05:57:56;;;;;;;19.38;7.38;;;;;;;11.59;50.39;99037.34;5126826;27;20069;-65
2022/04/24 06:00:24;;;;;;;14.50;7.75;;;;;;;11.62;50.91;99039.47;5114311;28;20043;-65
2022/04/24 06:02:55;;;;;;;27.20;10.07;;;;;;;11.64;50.57;99041.91;5096633;28;20051;-65
2022/04/24 06:05:23;;;;;;;19.08;7.72;;;;;;;11.61;50.90;99023.88;5095647;28;20044;-65
2022/04/24 06:07:51;;;;;;;18.02;7.30;;;;;;;11.67;50.65;99028.09;5078912;28;20043;-65
2022/04/24 06:10:18;;;;;;;27.10;8.25;;;;;;;11.69;50.58;99024.94;5113920;28;20128;-66
2022/04/24 06:12:50;;;;;;;19.83;8.32;;;;;;;11.70;50.76;99010.66;5114404;28;20046;-65
2022/04/24 06:15:21;;;;;;;18.38;7.13;;;;;;;11.80;50.60;99020.47;5114076;28;20134;-66
2022/04/24 06:17:52;;;;;;;15.18;7.15;;;;;;;11.85;50.46;99020.25;5113577;28;20060;-65
2022/04/24 06:20:21;;;;;;;19.40;7.75;;;;;;;11.84;50.44;99019.41;5114038;28;20135;-66
2022/04/24 06:22:53;;;;;;;13.77;7.32;;;;;;;11.83;50.52;99009.44;5114075;28;20100;-65
2022/04/24 06:25:39;;;;;;;15.52;6.47;;;;;;;11.85;50.26;99021.06;5113621;28;20482;-66
2022/04/24 06:28:06;;;;;;;14.02;6.82;;;;;;;11.89;50.50;99013.59;5118589;27;20078;-66
2022/04/24 06:30:35;;;;;;;21.50;9.15;;;;;;;11.96;50.08;99008.22;5115639;27;20079;-65
2022/04/24 06:33:02;;;;;;;17.65;8.32;;;;;;;11.94;50.41;99021.72;5116586;27;20515;-65
2022/04/24 06:35:29;;;;;;;16.45;7.97;;;;;;;11.92;50.27;99012.91;5134298;27;20070;-65
2022/04/24 06:37:56;;;;;;;13.27;6.43;;;;;;;11.92;50.53;99015.69;5134141;27;20157;-66
2022/04/24 06:40:25;;;;;;;16.55;7.53;;;;;;;11.89;50.47;99013.59;5134088;27;20166;-64
2022/04/24 06:42:57;;;;;;;19.73;6.65;;;;;;;11.90;50.83;99008.84;5133882;27;20125;-65
2022/04/24 06:45:27;;;;;;;17.38;7.18;;;;;;;11.85;50.87;99007.13;5115955;27;20111;-65
2022/04/24 06:47:57;;;;;;;15.38;7.43;;;;;;;11.95;50.60;99011.38;5133493;27;20074;-65
2022/04/24 06:50:26;;;;;;;16.30;7.22;;;;;;;12.02;50.37;99006.81;5133693;27;20067;-66
2022/04/24 06:53:04;;;;;;;15.45;7.07;;;;;;;12.08;50.37;99010.16;5133185;27;20049;-65
2022/04/24 06:55:36;;;;;;;65.57;26.20;;;;;;;12.10;50.24;99019.78;5134447;27;20043;-65
2022/04/24 06:58:05;;;;;;;14.73;7.63;;;;;;;12.04;50.07;99012.03;5125146;27;20059;-64
2022/04/24 07:00:41;;;;;;;15.02;6.97;;;;;;;12.04;50.33;99004.47;5113299;28;20051;-65
2022/04/24 07:03:30;;;;;;;16.67;8.52;;;;;;;12.17;50.06;98994.88;5081003;28;20528;-65
2022/04/24 07:05:57;;;;;;;19.50;7.15;;;;;;;12.26;49.73;99003.91;5078596;28;20058;-66
2022/04/24 07:08:24;;;;;;;16.50;7.22;;;;;;;12.33;49.48;98992.94;5113289;28;20044;-66
2022/04/24 07:10:55;;;;;;;17.52;7.25;;;;;;;12.34;49.81;98993.75;5094590;28;20142;-66
2022/04/24 07:13:22;;;;;;;;;;;;;;;12.28;49.81;98998.78;5095804;28;20064;-65
2022/04/24 07:15:50;;;;;;;13.88;7.05;;;;;;;12.30;49.72;99002.03;5094623;28;20383;-65
2022/04/24 07:18:17;;;;;;;21.63;6.90;;;;;;;12.28;49.84;98997.97;5121726;28;20141;-65
2022/04/24 07:20:45;;;;;;;19.35;7.38;;;;;;;12.36;49.58;98997.81;5133686;28;20108;-66
2022/04/24 07:23:12;;;;;;;16.70;7.40;;;;;;;12.40;49.53;99001.50;5133478;28;20138;-65
2022/04/24 07:25:43;;;;;;;13.95;7.00;;;;;;;12.48;49.31;98994.94;5133814;28;20541;-65
2022/04/24 07:28:15;;;;;;;39.10;11.15;;;;;;;12.55;49.33;98991.50;5133782;28;20136;-65
2022/04/24 07:30:43;;;;;;;13.00;6.85;;;;;;;12.61;49.33;98996.47;5133276;28;20131;-66
2022/04/24 07:33:11;;;;;;;18.00;6.90;;;;;;;12.70;48.57;98988.75;5133998;28;20387;-66
2022/04/24 07:35:39;;;;;;;16.35;6.13;;;;;;;12.80;48.52;98990.97;5133598;28;20074;-65
2022/04/24 07:38:07;;;;;;;11.55;6.15;;;;;;;12.87;48.05;98988.38;5133701;28;20117;-65
2022/04/24 07:40:35;;;;;;;12.73;6.72;;;;;;;12.96;47.89;98987.41;5133698;28;20043;-66
2022/04/24 07:43:08;;;;;;;13.48;6.00;;;;;;;12.99;47.54;98975.50;5133258;28;20054;-67
2022/04/24 07:45:36;;;;;;;20.50;7.07;;;;;;;13.01;47.61;98987.13;5133416;28;20047;-65
2022/04/24 07:48:05;;;;;;;14.43;6.07;;;;;;;13.02;47.43;98977.59;5115203;28;20055;-66
2022/04/24 07:50:40;;;;;;;51.33;16.65;;;;;;;13.10;47.36;98979.38;5133389;28;20055;-65
2022/04/24 07:53:08;;;;;;;16.10;6.45;;;;;;;13.13;46.83;98973.06;5132957;28;20178;-65
2022/04/24 07:55:35;;;;;;;14.82;6.07;;;;;;;13.17;46.79;98973.97;5132954;28;20146;-66
2022/04/24 07:58:03;;;;;;;15.50;6.03;;;;;;;13.26;46.36;98980.16;5124251;28;20052;-65
2022/04/24 08:00:31;;;;;;;12.40;5.97;;;;;;;13.36;46.23;98979.59;5112673;28;20052;-65
2022/04/24 08:03:06;;;;;;;13.00;6.72;;;;;;;13.36;46.38;98966.44;5112469;28;20134;-65
2022/04/24 08:05:47;;;;;;;13.15;6.30;;;;;;;13.42;45.88;98970.56;5115685;28;20047;-65
2022/04/24 08:08:23;;;;;;;15.65;6.38;;;;;;;13.46;45.98;98979.84;5097851;28;20059;-65
2022/04/24 08:10:52;;;;;;;11.57;6.40;;;;;;;13.48;45.54;98969.13;5116386;28;20058;-66
2022/04/24 08:13:19;;;;;;;12.40;5.50;;;;;;;13.51;45.35;98961.97;5116603;28;20075;-65
2022/04/24 08:15:48;;;;;;;10.73;6.40;;;;;;;13.64;45.21;98974.63;5116627;28;20044;-64
2022/04/24 08:18:16;;;;;;;19.60;6.65;;;;;;;13.79;45.27;98968.16;5116280;28;20048;-65
2022/04/24 08:20:44;;;;;;;43.47;14.98;;;;;;;13.92;44.56;98964.84;5116279;28;20044;-65
2022/04/24 08:23:15;;;;;;;11.88;6.22;;;;;;;13.97;44.56;98963.75;5115682;28;20079;-66
2022/04/24 08:25:42;;;;;;;12.88;5.70;;;;;;;13.96;44.49;98962.13;5106936;27;20039;-65
2022/04/24 08:28:11;;;;;;;15.73;6.18;;;;;;;13.92;44.85;98966.84;5136326;27;20053;-66
2022/04/24 08:30:43;;;;;;;11.73;5.82;;;;;;;13.81;44.91;98957.44;5136624;27;20078;-65
2022/04/24 08:33:11;;;;;;;11.05;6.47;;;;;;;13.69;45.12;98968.75;5136763;27;20613;-65
2022/04/24 08:35:38;;;;;;;18.75;6.78;;;;;;;13.64;45.27;98966.25;5101172;27;20042;-65
2022/04/24 08:38:06;;;;;;;10.88;5.63;;;;;;;13.68;45.03;98956.75;5136388;27;20083;-65
2022/04/24 08:40:33;;;;;;;13.23;6.35;;;;;;;13.80;45.01;98953.03;5136357;27;20509;-66
2022/04/24 08:43:01;;;;;;;18.42;6.95;;;;;;;13.99;44.78;98955.78;5136128;27;20501;-65
2022/04/24 08:45:33;;;;;;;13.40;6.68;;;;;;;14.13;44.39;98953.28;5137172;27;20077;-65
2022/04/24 08:48:02;;;;;;;13.07;6.85;;;;;;;14.25;43.95;98961.53;5136388;27;20055;-66
2022/04/24 08:50:31;;;;;;;13.45;6.68;;;;;;;14.29;44.23;98954.00;5136497;27;20043;-66
2022/04/24 08:53:00;;;;;;;18.48;7.03;;;;;;;14.45;43.95;98957.53;5136101;27;20100;-67
2022/04/24 08:55:30;;;;;;;13.90;6.17;;;;;;;14.72;43.50;98955.59;5135949;27;20046;-65
2022/04/24 08:57:57;;;;;;;25.45;6.13;;;;;;;14.96;42.88;98944.81;5127666;27;20472;-65
2022/04/24 09:00:27;;;;;;;10.10;6.57;;;;;;;15.14;42.54;98951.50;5115378;28;20051;-65
2022/04/24 09:02:57;;;;;;;14.90;6.30;;;;;;;15.16;42.43;98949.09;5115243;28;20056;-66
2022/04/24 09:05:26;;;;;;;18.92;7.03;;;;;;;15.25;42.75;98957.25;5115303;28;20055;-64
2022/04/24 09:08:06;;;;;;;12.85;5.88;;;;;;;15.28;42.47;98942.50;5097333;28;20081;-65
2022/04/24 09:10:56;;;;;;;16.38;5.80;;;;;;;15.46;42.15;98952.81;5115147;28;20142;-66
2022/04/24 09:16:36;;;;;;;16.38;6.20;;;;;;;16.38;40.87;98940.69;5114605;28;20051;-65
2022/04/24 09:19:23;;;;;;;10.15;6.43;;;;;;;17.59;38.71;98935.69;5115268;28;20051;-65
2022/04/24 09:21:52;;;;;;;14.45;6.82;;;;;;;18.53;37.07;98932.41;5114990;28;20047;-69
2022/04/24 09:24:20;;;;;;;16.83;5.75;;;;;;;19.81;35.02;98932.72;5118927;27;20031;-70
2022/04/24 09:26:55;;;;;;;12.52;5.78;;;;;;;21.01;33.33;98926.41;5135542;27;20506;-69
2022/04/24 09:29:23;;;;;;;15.07;6.55;;;;;;;21.20;32.83;98929.47;5135330;27;20050;-69
2022/04/24 09:31:51;;;;;;;11.60;6.18;;;;;;;21.21;32.62;98918.97;5135744;27;20049;-69
2022/04/24 09:34:20;;;;;;;13.23;6.00;;;;;;;21.15;32.84;98917.81;5135173;27;20056;-69
2022/04/24 09:37:01;;;;;;;11.77;5.78;;;;;;;21.31;32.46;98918.06;5135682;27;20043;-70
2022/04/24 09:39:34;;;;;;;13.52;5.03;;;;;;;20.76;32.85;98911.66;5114428;28;20108;-68
2022/04/24 09:42:18;;;;;;;17.33;6.22;;;;;;;19.97;33.99;98915.31;5114879;28;20048;-64
2022/04/24 09:44:50;;;;;;;10.15;5.40;;;;;;;19.03;35.21;98914.34;5114420;28;20051;-64
2022/04/24 09:47:42;;;;;;;14.13;6.53;;;;;;;18.20;36.53;98927.91;5126493;27;20055;-64
2022/04/24 09:50:10;;;;;;;14.85;5.60;;;;;;;17.65;37.31;98917.25;5134636;27;20493;-63
2022/04/24 09:52:58;;;;;;;16.17;5.13;;;;;;;17.13;38.24;98907.25;5119814;27;20051;-64
2022/04/24 09:55:28;;;;;;;14.75;5.45;;;;;;;16.87;38.71;98906.69;5134894;27;20047;-64
2022/04/24 09:58:01;;;;;;;17.45;6.25;;;;;;;16.58;39.59;98914.03;5126495;27;20074;-63
2022/04/24 10:00:28;;;;;;;18.50;5.90;;;;;;;16.40;40.17;98919.47;5096208;28;20069;-65
2022/04/24 10:02:56;;;;;;;10.52;5.50;;;;;;;16.36;40.45;98912.19;5095880;28;20506;-64
2022/04/24 10:05:28;;;;;;;10.90;5.00;;;;;;;16.42;40.45;98916.28;5113862;28;20126;-63
2022/04/24 10:07:55;;;;;;;17.05;5.30;;;;;;;16.58;40.12;98913.25;5113937;28;20063;-63
2022/04/24 10:10:43;;;;;;;10.45;4.53;;;;;;;16.67;39.69;98917.31;5099005;28;20055;-64
2022/04/24 10:13:34;;;;;;;9.10;3.92;;;;;;;16.75;39.14;98912.59;5099299;28;20051;-65
2022/04/24 10:16:37;;;;;;;14.25;4.28;;;;;;;16.76;38.90;98914.22;5114027;28;20098;-66
2022/04/24 10:19:38;;;;;;;7.35;3.92;;;;;;;16.76;38.65;98922.63;5115559;27;20043;-66
2022/04/24 10:22:12;;;;;;;6.70;3.97;;;;;;;16.64;38.66;98906.09;5134220;27;20481;-69
2022/04/24 10:24:43;;;;;;;5.05;3.08;;;;;;;16.49;38.85;98905.13;5134354;27;20108;-69
2022/04/24 10:27:11;;;;;;;10.10;3.67;;;;;;;16.29;39.13;98907.31;5133826;27;20045;-69
2022/04/24 10:29:59;;;;;;;8.75;3.85;;;;;;;16.16;39.76;98906.00;5133846;27;20051;-69
2022/04/24 10:32:27;;;;;;;6.75;3.58;;;;;;;15.98;39.75;98912.59;5134254;27;20051;-69
2022/04/24 10:34:54;;;;;;;11.73;4.10;;;;;;;15.87;40.36;98900.47;5134304;27;20445;-69
2022/04/24 10:37:42;;;;;;;9.32;3.78;;;;;;;15.76;40.46;98913.53;5119209;27;20367;-69
2022/04/24 10:40:17;;;;;;;7.45;3.38;;;;;;;15.64;41.07;98942.66;5134055;27;20054;-69
2022/04/24 10:42:44;;;;;;;8.32;3.53;;;;;;;15.45;42.04;98922.34;5134001;27;20055;-69
2022/04/24 10:45:20;;;;;;;5.43;3.30;;;;;;;15.32;42.50;98935.75;5134020;27;20070;-70
2022/04/24 10:47:58;;;;;;;8.55;4.05;;;;;;;15.16;42.99;98929.50;5133949;27;20505;-69
2022/04/24 10:50:25;;;;;;;8.02;3.42;;;;;;;15.03;43.55;98944.09;5133584;27;20518;-69
2022/04/24 10:52:55;;;;;;;6.22;3.95;;;;;;;14.89;44.07;98950.28;5133820;27;20069;-69
2022/04/24 10:55:25;;;;;;;5.38;3.83;;;;;;;14.81;45.42;98958.94;5133665;27;20066;-68
2022/04/24 10:57:59;;;;;;;7.25;4.40;;;;;;;14.68;46.38;98955.53;5126425;27;20039;-69
2022/04/24 11:00:31;;;;;;;7.13;4.22;;;;;;;14.54;46.93;98949.69;5113702;28;20070;-70
2022/04/24 11:03:11;;;;;;;9.80;4.03;;;;;;;14.51;47.46;98953.25;5113196;28;20044;-69
2022/04/24 11:05:44;;;;;;;5.97;3.72;;;;;;;14.40;47.68;98955.84;5113202;28;20043;-69
2022/04/24 11:08:21;;;;;;;5.30;3.80;;;;;;;14.30;48.23;98955.66;5112821;28;20075;-69
2022/04/24 11:10:50;;;;;;;8.38;4.07;;;;;;;14.22;48.56;98953.88;5113451;28;20055;-70
2022/04/24 11:13:19;;;;;;;8.63;4.57;;;;;;;14.19;48.94;98951.81;5077992;28;20151;-73
2022/04/24 11:15:48;;;;;;;78.40;33.20;;;;;;;14.12;49.42;98954.47;5113320;28;20051;-69
2022/04/24 11:18:26;;;;;;;9.13;5.90;;;;;;;14.22;49.79;98965.06;5095103;28;20055;-69
2022/04/24 11:21:01;;;;;;;7.30;4.97;;;;;;;14.23;50.01;98953.53;5113100;28;20171;-70
2022/04/24 11:23:31;;;;;;;7.47;4.90;;;;;;;14.17;50.71;98960.56;5112906;28;20048;-69
2022/04/24 11:26:00;;;;;;;7.43;5.00;;;;;;;14.15;51.01;98967.72;5113351;28;20213;-69
2022/04/24 11:28:38;;;;;;;10.55;5.32;;;;;;;14.09;51.39;98986.78;5112959;28;20096;-69
2022/04/24 11:31:19;;;;;;;9.07;6.03;;;;;;;13.93;52.22;98982.44;5112976;28;20525;-70
2022/04/24 11:33:59;;;;;;;9.18;5.70;;;;;;;13.88;52.35;98982.72;5094947;28;20097;-69
2022/04/24 11:36:45;;;;;;;8.27;5.40;;;;;;;13.82;53.19;98989.78;5112847;28;20051;-69
2022/04/24 11:39:12;;;;;;;10.05;6.05;;;;;;;13.75;53.55;98987.66;5113460;28;20585;-71
2022/04/24 11:41:39;;;;;;;8.60;6.30;;;;;;;13.70;54.33;98982.38;5117331;28;20055;-69
2022/04/24 11:50:15;;;;;;;11.20;6.85;;;;;;;13.59;55.29;98991.69;5116560;28;20091;-69